sensor_id;sensor_type;location;lat;lon;timestamp;pressure;altitude;pressure_sealevel;temperature;humidity
84020;BME280;74102;49.084;13.694;2023-12-04T00:01:12;93665.63;;;-10.60;66.64
84020;BME280;74102;49.084;13.694;2023-12-04T00:03:37;93659.63;;;-10.58;66.90
84020;BME280;74102;49.084;13.694;2023-12-04T00:06:03;93662.81;;;-10.51;66.77
84020;BME280;74102;49.084;13.694;2023-12-04T00:08:28;93666.38;;;-10.57;66.87
84020;BME280;74102;49.084;13.694;2023-12-04T00:10:53;93654.56;;;-10.56;66.54
84020;BME280;74102;49.084;13.694;2023-12-04T00:13:19;93655.25;;;-10.51;66.25
84020;BME280;74102;49.084;13.694;2023-12-04T00:15:44;93644.22;;;-10.49;66.93
84020;BME280;74102;49.084;13.694;2023-12-04T00:18:10;93650.03;;;-10.45;66.88
84020;BME280;74102;49.084;13.694;2023-12-04T00:20:35;93644.88;;;-10.42;66.07
84020;BME280;74102;49.084;13.694;2023-12-04T00:23:02;93638.09;;;-10.40;66.63
84020;BME280;74102;49.084;13.694;2023-12-04T00:25:27;93645.63;;;-10.39;66.27
84020;BME280;74102;49.084;13.694;2023-12-04T00:27:52;93641.66;;;-10.47;66.43
84020;BME280;74102;49.084;13.694;2023-12-04T00:30:18;93645.06;;;-10.48;66.39
84020;BME280;74102;49.084;13.694;2023-12-04T00:32:43;93631.81;;;-10.56;65.78
84020;BME280;74102;49.084;13.694;2023-12-04T00:35:09;93637.00;;;-10.62;66.15
84020;BME280;74102;49.084;13.694;2023-12-04T00:37:34;93636.97;;;-10.59;66.56
84020;BME280;74102;49.084;13.694;2023-12-04T00:40:04;93630.84;;;-10.52;66.98
84020;BME280;74102;49.084;13.694;2023-12-04T00:42:30;93642.69;;;-10.54;66.01
84020;BME280;74102;49.084;13.694;2023-12-04T00:44:55;93634.50;;;-10.62;66.42
84020;BME280;74102;49.084;13.694;2023-12-04T00:47:21;93641.63;;;-10.77;66.16
84020;BME280;74102;49.084;13.694;2023-12-04T00:49:46;93643.59;;;-10.88;67.36
84020;BME280;74102;49.084;13.694;2023-12-04T00:52:11;93644.31;;;-10.83;67.70
84020;BME280;74102;49.084;13.694;2023-12-04T00:54:41;93645.88;;;-10.79;67.01
84020;BME280;74102;49.084;13.694;2023-12-04T00:57:08;93641.72;;;-10.80;66.16
84020;BME280;74102;49.084;13.694;2023-12-04T00:59:34;93638.63;;;-10.89;66.60
84020;BME280;74102;49.084;13.694;2023-12-04T01:01:59;93638.81;;;-10.97;66.71
84020;BME280;74102;49.084;13.694;2023-12-04T01:04:24;93642.16;;;-10.96;66.63
84020;BME280;74102;49.084;13.694;2023-12-04T01:06:51;93637.84;;;-10.93;67.22
84020;BME280;74102;49.084;13.694;2023-12-04T01:09:17;93657.91;;;-10.87;66.95
84020;BME280;74102;49.084;13.694;2023-12-04T01:11:42;93651.00;;;-10.80;66.32
84020;BME280;74102;49.084;13.694;2023-12-04T01:14:08;93648.66;;;-10.88;66.58
84020;BME280;74102;49.084;13.694;2023-12-04T01:16:33;93643.56;;;-10.86;66.70
84020;BME280;74102;49.084;13.694;2023-12-04T01:18:59;93640.19;;;-10.85;66.81
84020;BME280;74102;49.084;13.694;2023-12-04T01:21:24;93632.63;;;-10.85;66.55
84020;BME280;74102;49.084;13.694;2023-12-04T01:23:49;93625.75;;;-10.82;66.13
84020;BME280;74102;49.084;13.694;2023-12-04T01:26:15;93624.38;;;-10.92;66.48
84020;BME280;74102;49.084;13.694;2023-12-04T01:28:40;93626.00;;;-10.91;67.00
84020;BME280;74102;49.084;13.694;2023-12-04T01:31:06;93623.53;;;-10.92;66.27
84020;BME280;74102;49.084;13.694;2023-12-04T01:33:32;93619.41;;;-10.95;66.72
84020;BME280;74102;49.084;13.694;2023-12-04T01:35:57;93622.88;;;-10.99;65.80
84020;BME280;74102;49.084;13.694;2023-12-04T01:38:22;93618.81;;;-11.04;65.97
84020;BME280;74102;49.084;13.694;2023-12-04T01:40:48;93613.03;;;-11.08;66.56
84020;BME280;74102;49.084;13.694;2023-12-04T01:43:13;93608.84;;;-11.09;66.45
84020;BME280;74102;49.084;13.694;2023-12-04T01:45:40;93602.09;;;-11.08;65.96
84020;BME280;74102;49.084;13.694;2023-12-04T01:48:06;93603.97;;;-11.16;65.71
84020;BME280;74102;49.084;13.694;2023-12-04T01:50:34;93599.94;;;-11.22;66.29
84020;BME280;74102;49.084;13.694;2023-12-04T01:53:00;93605.22;;;-11.31;66.62
84020;BME280;74102;49.084;13.694;2023-12-04T01:55:26;93598.50;;;-11.32;66.80
84020;BME280;74102;49.084;13.694;2023-12-04T01:57:52;93597.88;;;-11.40;66.67
84020;BME280;74102;49.084;13.694;2023-12-04T02:00:18;93600.47;;;-11.43;66.53
84020;BME280;74102;49.084;13.694;2023-12-04T02:02:46;93593.63;;;-11.38;66.28
84020;BME280;74102;49.084;13.694;2023-12-04T02:05:12;93591.16;;;-11.41;66.27
84020;BME280;74102;49.084;13.694;2023-12-04T02:07:40;93589.50;;;-11.42;66.35
84020;BME280;74102;49.084;13.694;2023-12-04T02:10:06;93588.66;;;-11.41;66.41
84020;BME280;74102;49.084;13.694;2023-12-04T02:12:32;93576.81;;;-11.39;66.95
84020;BME280;74102;49.084;13.694;2023-12-04T02:14:58;93570.13;;;-11.40;66.14
84020;BME280;74102;49.084;13.694;2023-12-04T02:17:24;93575.25;;;-11.43;66.21
84020;BME280;74102;49.084;13.694;2023-12-04T02:19:50;93576.22;;;-11.49;66.18
84020;BME280;74102;49.084;13.694;2023-12-04T02:22:15;93567.94;;;-11.54;66.00
84020;BME280;74102;49.084;13.694;2023-12-04T02:24:43;93564.69;;;-11.57;66.84
84020;BME280;74102;49.084;13.694;2023-12-04T02:27:23;93558.84;;;-11.59;66.95
84020;BME280;74102;49.084;13.694;2023-12-04T02:29:57;93557.09;;;-11.57;66.44
84020;BME280;74102;49.084;13.694;2023-12-04T02:32:24;93546.84;;;-11.51;66.63
84020;BME280;74102;49.084;13.694;2023-12-04T02:34:52;93558.44;;;-11.44;65.81
84020;BME280;74102;49.084;13.694;2023-12-04T02:37:20;93542.41;;;-11.42;66.15
84020;BME280;74102;49.084;13.694;2023-12-04T02:39:46;93550.88;;;-11.44;66.43
84020;BME280;74102;49.084;13.694;2023-12-04T02:42:13;93548.34;;;-11.44;65.67
84020;BME280;74102;49.084;13.694;2023-12-04T02:44:39;93555.06;;;-11.43;66.11
84020;BME280;74102;49.084;13.694;2023-12-04T02:47:04;93557.63;;;-11.45;66.47
84020;BME280;74102;49.084;13.694;2023-12-04T02:49:30;93536.59;;;-11.45;65.43
84020;BME280;74102;49.084;13.694;2023-12-04T02:51:55;93544.91;;;-11.40;66.11
84020;BME280;74102;49.084;13.694;2023-12-04T02:54:22;93538.25;;;-11.44;65.66
84020;BME280;74102;49.084;13.694;2023-12-04T02:56:48;93536.00;;;-11.55;66.06
84020;BME280;74102;49.084;13.694;2023-12-04T02:59:13;93535.19;;;-11.55;66.35
84020;BME280;74102;49.084;13.694;2023-12-04T03:01:38;93521.72;;;-11.54;65.64
84020;BME280;74102;49.084;13.694;2023-12-04T03:04:04;93525.09;;;-11.55;66.51
84020;BME280;74102;49.084;13.694;2023-12-04T03:06:29;93519.16;;;-11.53;66.44
84020;BME280;74102;49.084;13.694;2023-12-04T03:08:54;93512.19;;;-11.45;65.96
84020;BME280;74102;49.084;13.694;2023-12-04T03:11:20;93511.28;;;-11.42;66.02
84020;BME280;74102;49.084;13.694;2023-12-04T03:13:45;93506.50;;;-11.51;65.85
84020;BME280;74102;49.084;13.694;2023-12-04T03:16:17;93520.72;;;-11.49;66.37
84020;BME280;74102;49.084;13.694;2023-12-04T03:18:43;93519.03;;;-11.48;66.51
84020;BME280;74102;49.084;13.694;2023-12-04T03:21:08;93514.03;;;-11.50;66.55
84020;BME280;74102;49.084;13.694;2023-12-04T03:23:34;93499.72;;;-11.49;65.70
84020;BME280;74102;49.084;13.694;2023-12-04T03:25:59;93504.81;;;-11.52;66.08
84020;BME280;74102;49.084;13.694;2023-12-04T03:28:24;93499.78;;;-11.52;65.95
84020;BME280;74102;49.084;13.694;2023-12-04T03:30:50;93496.66;;;-11.60;66.89
84020;BME280;74102;49.084;13.694;2023-12-04T03:33:15;93501.78;;;-11.63;67.32
84020;BME280;74102;49.084;13.694;2023-12-04T03:35:40;93494.28;;;-11.66;67.35
84020;BME280;74102;49.084;13.694;2023-12-04T03:38:06;93491.59;;;-11.60;67.10
84020;BME280;74102;49.084;13.694;2023-12-04T03:40:31;93486.47;;;-11.57;66.34
84020;BME280;74102;49.084;13.694;2023-12-04T03:42:57;93490.59;;;-11.55;66.74
84020;BME280;74102;49.084;13.694;2023-12-04T03:45:22;93479.75;;;-11.57;66.30
84020;BME280;74102;49.084;13.694;2023-12-04T03:47:47;93483.19;;;-11.59;66.18
84020;BME280;74102;49.084;13.694;2023-12-04T03:50:13;93480.75;;;-11.62;65.72
84020;BME280;74102;49.084;13.694;2023-12-04T03:52:38;93484.13;;;-11.63;66.61
84020;BME280;74102;49.084;13.694;2023-12-04T03:55:04;93476.56;;;-11.63;66.63
84020;BME280;74102;49.084;13.694;2023-12-04T03:57:30;93488.22;;;-11.59;66.26
84020;BME280;74102;49.084;13.694;2023-12-04T03:59:55;93489.09;;;-11.62;66.48
84020;BME280;74102;49.084;13.694;2023-12-04T04:02:20;93483.97;;;-11.59;66.62
84020;BME280;74102;49.084;13.694;2023-12-04T04:04:46;93483.94;;;-11.56;65.61
84020;BME280;74102;49.084;13.694;2023-12-04T04:07:11;93483.09;;;-11.56;65.69
84020;BME280;74102;49.084;13.694;2023-12-04T04:09:37;93478.22;;;-11.62;65.99
84020;BME280;74102;49.084;13.694;2023-12-04T04:12:02;93471.69;;;-11.69;65.97
84020;BME280;74102;49.084;13.694;2023-12-04T04:14:28;93469.25;;;-11.72;66.33
84020;BME280;74102;49.084;13.694;2023-12-04T04:16:53;93472.66;;;-11.73;66.37
84020;BME280;74102;49.084;13.694;2023-12-04T04:19:18;93469.25;;;-11.72;66.21
84020;BME280;74102;49.084;13.694;2023-12-04T04:21:44;93458.28;;;-11.71;65.97
84020;BME280;74102;49.084;13.694;2023-12-04T04:24:09;93463.47;;;-11.76;66.10
84020;BME280;74102;49.084;13.694;2023-12-04T04:26:35;93458.47;;;-11.77;66.49
84020;BME280;74102;49.084;13.694;2023-12-04T04:29:01;93460.13;;;-11.76;66.32
84020;BME280;74102;49.084;13.694;2023-12-04T04:31:26;93455.06;;;-11.76;66.34
84020;BME280;74102;49.084;13.694;2023-12-04T04:33:51;93455.00;;;-11.73;66.44
84020;BME280;74102;49.084;13.694;2023-12-04T04:36:17;93445.75;;;-11.73;66.40
84020;BME280;74102;49.084;13.694;2023-12-04T04:38:42;93444.72;;;-11.67;66.14
84020;BME280;74102;49.084;13.694;2023-12-04T04:41:13;93447.94;;;-11.62;66.18
84020;BME280;74102;49.084;13.694;2023-12-04T04:43:38;93437.03;;;-11.63;66.44
84020;BME280;74102;49.084;13.694;2023-12-04T04:46:04;93443.78;;;-11.65;66.11
84020;BME280;74102;49.084;13.694;2023-12-04T04:48:29;93442.16;;;-11.66;66.18
84020;BME280;74102;49.084;13.694;2023-12-04T04:50:54;93433.91;;;-11.71;66.15
84020;BME280;74102;49.084;13.694;2023-12-04T04:53:20;93435.66;;;-11.73;66.27
84020;BME280;74102;49.084;13.694;2023-12-04T04:55:46;93437.03;;;-11.94;66.46
84020;BME280;74102;49.084;13.694;2023-12-04T04:58:11;93429.59;;;-11.98;66.92
84020;BME280;74102;49.084;13.694;2023-12-04T05:00:37;93432.00;;;-11.94;66.89
84020;BME280;74102;49.084;13.694;2023-12-04T05:03:02;93431.81;;;-11.88;66.81
84020;BME280;74102;49.084;13.694;2023-12-04T05:05:27;93440.28;;;-11.89;66.60
84020;BME280;74102;49.084;13.694;2023-12-04T05:07:53;93435.16;;;-11.86;66.87
84020;BME280;74102;49.084;13.694;2023-12-04T05:10:18;93426.59;;;-11.80;66.10
84020;BME280;74102;49.084;13.694;2023-12-04T05:12:44;93428.34;;;-11.82;66.29
84020;BME280;74102;49.084;13.694;2023-12-04T05:15:09;93431.81;;;-11.86;66.64
84020;BME280;74102;49.084;13.694;2023-12-04T05:17:34;93426.69;;;-11.83;66.82
84020;BME280;74102;49.084;13.694;2023-12-04T05:20:00;93419.00;;;-11.78;66.79
84020;BME280;74102;49.084;13.694;2023-12-04T05:22:25;93420.63;;;-11.77;66.44
84020;BME280;74102;49.084;13.694;2023-12-04T05:24:50;93416.31;;;-11.72;66.31
84020;BME280;74102;49.084;13.694;2023-12-04T05:27:16;93412.88;;;-11.70;67.03
84020;BME280;74102;49.084;13.694;2023-12-04T05:29:41;93412.75;;;-11.67;67.02
84020;BME280;74102;49.084;13.694;2023-12-04T05:32:06;93414.44;;;-11.67;66.56
84020;BME280;74102;49.084;13.694;2023-12-04T05:34:32;93413.59;;;-11.66;66.20
84020;BME280;74102;49.084;13.694;2023-12-04T05:36:57;93406.88;;;-11.67;66.00
84020;BME280;74102;49.084;13.694;2023-12-04T05:39:23;93407.16;;;-11.76;66.03
84020;BME280;74102;49.084;13.694;2023-12-04T05:41:48;93402.16;;;-11.78;66.40
84020;BME280;74102;49.084;13.694;2023-12-04T05:44:13;93390.44;;;-11.79;66.79
84020;BME280;74102;49.084;13.694;2023-12-04T05:46:39;93397.09;;;-11.78;66.51
84020;BME280;74102;49.084;13.694;2023-12-04T05:49:04;93396.31;;;-11.78;66.46
84020;BME280;74102;49.084;13.694;2023-12-04T05:51:30;93402.97;;;-11.77;66.50
84020;BME280;74102;49.084;13.694;2023-12-04T05:53:55;93390.47;;;-11.81;66.52
84020;BME280;74102;49.084;13.694;2023-12-04T05:56:21;93390.53;;;-11.84;66.71
84020;BME280;74102;49.084;13.694;2023-12-04T05:58:46;93386.44;;;-11.88;67.08
84020;BME280;74102;49.084;13.694;2023-12-04T06:01:11;93383.06;;;-11.87;67.05
84020;BME280;74102;49.084;13.694;2023-12-04T06:03:37;93384.81;;;-11.89;67.08
84020;BME280;74102;49.084;13.694;2023-12-04T06:06:02;93377.28;;;-11.90;67.53
84020;BME280;74102;49.084;13.694;2023-12-04T06:08:28;93381.28;;;-11.83;66.79
84020;BME280;74102;49.084;13.694;2023-12-04T06:10:53;93376.13;;;-11.78;66.72
84020;BME280;74102;49.084;13.694;2023-12-04T06:13:19;93379.50;;;-11.80;67.05
84020;BME280;74102;49.084;13.694;2023-12-04T06:15:44;93373.47;;;-11.74;66.88
84020;BME280;74102;49.084;13.694;2023-12-04T06:18:09;93370.09;;;-11.73;66.78
84020;BME280;74102;49.084;13.694;2023-12-04T06:20:35;93364.84;;;-11.67;66.30
84020;BME280;74102;49.084;13.694;2023-12-04T06:23:00;93357.25;;;-11.65;66.21
84020;BME280;74102;49.084;13.694;2023-12-04T06:25:26;93356.41;;;-11.66;66.25
84020;BME280;74102;49.084;13.694;2023-12-04T06:27:52;93349.69;;;-11.67;66.71
84020;BME280;74102;49.084;13.694;2023-12-04T06:30:18;93359.75;;;-11.65;66.54
84020;BME280;74102;49.084;13.694;2023-12-04T06:32:43;93350.63;;;-11.69;66.25
84020;BME280;74102;49.084;13.694;2023-12-04T06:35:10;93348.88;;;-11.67;66.13
84020;BME280;74102;49.084;13.694;2023-12-04T06:37:38;93350.47;;;-11.65;66.46
84020;BME280;74102;49.084;13.694;2023-12-04T06:40:05;93338.75;;;-11.66;66.74
84020;BME280;74102;49.084;13.694;2023-12-04T06:42:36;93342.88;;;-11.63;66.89
84020;BME280;74102;49.084;13.694;2023-12-04T06:45:02;93343.66;;;-11.61;66.75
84020;BME280;74102;49.084;13.694;2023-12-04T06:47:31;93343.75;;;-11.64;66.42
84020;BME280;74102;49.084;13.694;2023-12-04T06:49:56;93338.75;;;-11.66;66.36
84020;BME280;74102;49.084;13.694;2023-12-04T06:52:21;93338.78;;;-11.67;66.75
84020;BME280;74102;49.084;13.694;2023-12-04T06:54:47;93339.34;;;-11.58;66.65
84020;BME280;74102;49.084;13.694;2023-12-04T06:57:12;93346.78;;;-11.53;66.14
84020;BME280;74102;49.084;13.694;2023-12-04T06:59:41;93347.56;;;-11.51;66.70
84020;BME280;74102;49.084;13.694;2023-12-04T07:02:06;93345.69;;;-11.45;66.48
84020;BME280;74102;49.084;13.694;2023-12-04T07:04:32;93348.09;;;-11.40;66.10
84020;BME280;74102;49.084;13.694;2023-12-04T07:06:58;93343.03;;;-11.40;65.70
84020;BME280;74102;49.084;13.694;2023-12-04T07:09:29;93343.78;;;-11.37;66.28
84020;BME280;74102;49.084;13.694;2023-12-04T07:11:55;93336.13;;;-11.34;65.63
84020;BME280;74102;49.084;13.694;2023-12-04T07:14:20;93340.06;;;-11.25;66.25
84020;BME280;74102;49.084;13.694;2023-12-04T07:16:46;93340.59;;;-11.15;66.19
84020;BME280;74102;49.084;13.694;2023-12-04T07:19:12;93333.56;;;-11.06;66.03
84020;BME280;74102;49.084;13.694;2023-12-04T07:21:39;93346.88;;;-11.01;66.06
84020;BME280;74102;49.084;13.694;2023-12-04T07:24:06;93340.19;;;-11.02;66.32
84020;BME280;74102;49.084;13.694;2023-12-04T07:26:32;93334.94;;;-10.96;66.39
84020;BME280;74102;49.084;13.694;2023-12-04T07:28:58;93330.66;;;-10.94;65.29
84020;BME280;74102;49.084;13.694;2023-12-04T07:31:23;93327.03;;;-10.85;65.88
84020;BME280;74102;49.084;13.694;2023-12-04T07:33:49;93322.59;;;-10.79;65.64
84020;BME280;74102;49.084;13.694;2023-12-04T07:36:14;93320.84;;;-10.77;65.81
84020;BME280;74102;49.084;13.694;2023-12-04T07:38:39;93312.47;;;-10.79;66.12
84020;BME280;74102;49.084;13.694;2023-12-04T07:41:05;93310.56;;;-10.71;66.34
84020;BME280;74102;49.084;13.694;2023-12-04T07:43:30;93311.81;;;-10.57;66.22
84020;BME280;74102;49.084;13.694;2023-12-04T07:45:56;93304.00;;;-10.51;66.46
84020;BME280;74102;49.084;13.694;2023-12-04T07:48:22;93298.44;;;-10.36;65.86
84020;BME280;74102;49.084;13.694;2023-12-04T07:50:48;93291.25;;;-10.24;66.28
84020;BME280;74102;49.084;13.694;2023-12-04T07:53:13;93296.81;;;-10.14;65.93
84020;BME280;74102;49.084;13.694;2023-12-04T07:55:39;93283.16;;;-10.10;67.50
84020;BME280;74102;49.084;13.694;2023-12-04T07:58:04;93290.31;;;-9.98;67.12
84020;BME280;74102;49.084;13.694;2023-12-04T08:00:29;93279.56;;;-9.80;66.68
84020;BME280;74102;49.084;13.694;2023-12-04T08:02:55;93271.28;;;-9.62;66.37
84020;BME280;74102;49.084;13.694;2023-12-04T08:05:21;93273.34;;;-9.49;65.72
84020;BME280;74102;49.084;13.694;2023-12-04T08:07:47;93265.19;;;-9.34;66.28
84020;BME280;74102;49.084;13.694;2023-12-04T08:10:12;93264.72;;;-9.22;66.79
84020;BME280;74102;49.084;13.694;2023-12-04T08:12:38;93266.00;;;-9.12;66.54
84020;BME280;74102;49.084;13.694;2023-12-04T08:15:05;93261.97;;;-8.96;65.59
84020;BME280;74102;49.084;13.694;2023-12-04T08:17:30;93258.13;;;-8.84;65.74
84020;BME280;74102;49.084;13.694;2023-12-04T08:19:56;93250.94;;;-8.73;65.69
84020;BME280;74102;49.084;13.694;2023-12-04T08:22:21;93244.53;;;-8.62;66.31
84020;BME280;74102;49.084;13.694;2023-12-04T08:24:46;93251.47;;;-8.46;66.26
84020;BME280;74102;49.084;13.694;2023-12-04T08:27:12;93235.63;;;-8.31;66.17
84020;BME280;74102;49.084;13.694;2023-12-04T08:29:39;93238.31;;;-8.16;66.11
84020;BME280;74102;49.084;13.694;2023-12-04T08:32:05;93246.06;;;-8.00;66.35
84020;BME280;74102;49.084;13.694;2023-12-04T08:34:31;93236.06;;;-7.84;67.11
84020;BME280;74102;49.084;13.694;2023-12-04T08:36:56;93238.75;;;-7.69;66.07
84020;BME280;74102;49.084;13.694;2023-12-04T08:39:22;93234.69;;;-7.54;65.64
84020;BME280;74102;49.084;13.694;2023-12-04T08:41:47;93235.72;;;-7.39;66.43
84020;BME280;74102;49.084;13.694;2023-12-04T08:44:13;93231.72;;;-7.26;66.41
84020;BME280;74102;49.084;13.694;2023-12-04T08:46:39;93228.59;;;-7.14;65.93
84020;BME280;74102;49.084;13.694;2023-12-04T08:49:05;93224.44;;;-6.98;67.65
84020;BME280;74102;49.084;13.694;2023-12-04T08:51:30;93216.16;;;-6.84;67.71
84020;BME280;74102;49.084;13.694;2023-12-04T08:53:56;93226.25;;;-6.66;67.35
84020;BME280;74102;49.084;13.694;2023-12-04T08:56:21;93227.97;;;-6.49;67.49
84020;BME280;74102;49.084;13.694;2023-12-04T08:58:46;93223.09;;;-6.36;68.06
84020;BME280;74102;49.084;13.694;2023-12-04T09:01:12;93222.47;;;-6.24;67.79
84020;BME280;74102;49.084;13.694;2023-12-04T09:03:37;93219.47;;;-6.15;68.43
84020;BME280;74102;49.084;13.694;2023-12-04T09:06:03;93209.59;;;-6.04;67.53
84020;BME280;74102;49.084;13.694;2023-12-04T09:08:28;93215.97;;;-5.97;67.57
84020;BME280;74102;49.084;13.694;2023-12-04T09:10:54;93203.84;;;-5.92;67.66
84020;BME280;74102;49.084;13.694;2023-12-04T09:13:22;93205.34;;;-5.88;66.32
84020;BME280;74102;49.084;13.694;2023-12-04T09:15:48;93190.53;;;-5.81;66.42
84020;BME280;74102;49.084;13.694;2023-12-04T09:18:13;93192.75;;;-5.75;67.08
84020;BME280;74102;49.084;13.694;2023-12-04T09:20:38;93182.16;;;-5.68;66.83
84020;BME280;74102;49.084;13.694;2023-12-04T09:23:04;93184.28;;;-5.60;66.91
84020;BME280;74102;49.084;13.694;2023-12-04T09:25:29;93173.72;;;-5.53;66.91
84020;BME280;74102;49.084;13.694;2023-12-04T09:27:54;93179.97;;;-5.43;67.25
84020;BME280;74102;49.084;13.694;2023-12-04T09:30:20;93171.63;;;-5.30;66.90
84020;BME280;74102;49.084;13.694;2023-12-04T09:32:45;93175.88;;;-5.15;67.15
84020;BME280;74102;49.084;13.694;2023-12-04T09:35:10;93170.75;;;-5.00;67.24
84020;BME280;74102;49.084;13.694;2023-12-04T09:37:36;93166.78;;;-4.90;68.38
84020;BME280;74102;49.084;13.694;2023-12-04T09:40:02;93161.81;;;-4.77;68.21
84020;BME280;74102;49.084;13.694;2023-12-04T09:42:29;93159.13;;;-4.60;67.77
84020;BME280;74102;49.084;13.694;2023-12-04T09:44:56;93156.22;;;-4.40;67.19
84020;BME280;74102;49.084;13.694;2023-12-04T09:47:22;93152.59;;;-4.36;65.98
84020;BME280;74102;49.084;13.694;2023-12-04T09:49:51;93153.69;;;-4.40;66.14
84020;BME280;74102;49.084;13.694;2023-12-04T09:52:18;93147.66;;;-4.39;66.29
84020;BME280;74102;49.084;13.694;2023-12-04T09:54:44;93142.94;;;-4.31;66.01
84020;BME280;74102;49.084;13.694;2023-12-04T09:57:10;93133.47;;;-4.29;65.49
84020;BME280;74102;49.084;13.694;2023-12-04T09:59:35;93129.66;;;-4.21;65.55
84020;BME280;74102;49.084;13.694;2023-12-04T10:02:01;93120.91;;;-4.17;65.55
84020;BME280;74102;49.084;13.694;2023-12-04T10:04:27;93122.34;;;-4.13;65.67
84020;BME280;74102;49.084;13.694;2023-12-04T10:06:52;93117.78;;;-4.08;65.57
84020;BME280;74102;49.084;13.694;2023-12-04T10:09:18;93115.75;;;-4.03;65.05
84020;BME280;74102;49.084;13.694;2023-12-04T10:11:48;93105.28;;;-3.99;64.53
84020;BME280;74102;49.084;13.694;2023-12-04T10:14:19;93099.88;;;-3.94;64.21
84020;BME280;74102;49.084;13.694;2023-12-04T10:16:45;93092.03;;;-3.91;63.90
84020;BME280;74102;49.084;13.694;2023-12-04T10:19:21;93086.72;;;-3.88;64.19
84020;BME280;74102;49.084;13.694;2023-12-04T10:21:49;93079.63;;;-3.83;64.07
84020;BME280;74102;49.084;13.694;2023-12-04T10:26:53;93075.22;;;-3.67;64.01
84020;BME280;74102;49.084;13.694;2023-12-04T10:29:18;93073.09;;;-3.60;63.03
84020;BME280;74102;49.084;13.694;2023-12-04T10:31:44;93064.72;;;-3.50;63.10
84020;BME280;74102;49.084;13.694;2023-12-04T10:34:09;93053.63;;;-3.36;62.50
84020;BME280;74102;49.084;13.694;2023-12-04T10:36:37;93047.31;;;-3.31;62.69
84020;BME280;74102;49.084;13.694;2023-12-04T10:39:03;93044.59;;;-3.28;62.80
84020;BME280;74102;49.084;13.694;2023-12-04T10:41:32;93035.97;;;-3.27;62.79
84020;BME280;74102;49.084;13.694;2023-12-04T10:43:57;93039.56;;;-3.16;62.87
84020;BME280;74102;49.084;13.694;2023-12-04T10:46:27;93027.13;;;-3.08;62.28
84020;BME280;74102;49.084;13.694;2023-12-04T10:48:53;93018.53;;;-2.95;61.83
84020;BME280;74102;49.084;13.694;2023-12-04T10:51:19;93025.72;;;-2.87;62.30
84020;BME280;74102;49.084;13.694;2023-12-04T10:53:45;93017.13;;;-2.86;62.08
84020;BME280;74102;49.084;13.694;2023-12-04T10:56:15;93008.31;;;-2.82;62.26
84020;BME280;74102;49.084;13.694;2023-12-04T10:58:44;93008.31;;;-2.82;62.06
84020;BME280;74102;49.084;13.694;2023-12-04T11:01:12;93015.69;;;-2.78;62.10
84020;BME280;74102;49.084;13.694;2023-12-04T11:03:47;93002.38;;;-2.83;62.46
84020;BME280;74102;49.084;13.694;2023-12-04T11:06:16;93006.69;;;-2.83;61.82
84020;BME280;74102;49.084;13.694;2023-12-04T11:08:42;92995.09;;;-2.89;62.42
84020;BME280;74102;49.084;13.694;2023-12-04T11:11:12;93006.16;;;-3.01;62.42
84020;BME280;74102;49.084;13.694;2023-12-04T11:13:48;92997.44;;;-2.98;62.88
84020;BME280;74102;49.084;13.694;2023-12-04T11:16:22;92988.66;;;-2.94;62.82
84020;BME280;74102;49.084;13.694;2023-12-04T11:18:55;92986.63;;;-2.89;62.34
84020;BME280;74102;49.084;13.694;2023-12-04T11:21:22;92974.75;;;-2.90;61.99
84020;BME280;74102;49.084;13.694;2023-12-04T11:23:49;92983.88;;;-2.86;62.14
84020;BME280;74102;49.084;13.694;2023-12-04T11:26:15;92969.00;;;-2.81;61.53
84020;BME280;74102;49.084;13.694;2023-12-04T11:28:41;92967.16;;;-2.79;62.15
84020;BME280;74102;49.084;13.694;2023-12-04T11:31:07;92957.53;;;-2.76;62.34
84020;BME280;74102;49.084;13.694;2023-12-04T11:33:37;92964.41;;;-2.76;61.95
84020;BME280;74102;49.084;13.694;2023-12-04T11:36:11;92957.75;;;-2.79;62.27
84020;BME280;74102;49.084;13.694;2023-12-04T11:38:43;92956.94;;;-2.67;62.10
84020;BME280;74102;49.084;13.694;2023-12-04T11:43:42;92947.66;;;-2.44;60.97
84020;BME280;74102;49.084;13.694;2023-12-04T11:46:09;92954.00;;;-2.37;61.45
84020;BME280;74102;49.084;13.694;2023-12-04T11:48:38;92944.06;;;-2.29;61.55
84020;BME280;74102;49.084;13.694;2023-12-04T11:51:07;92930.22;;;-2.26;61.52
84020;BME280;74102;49.084;13.694;2023-12-04T11:53:37;92941.28;;;-2.26;61.31
84020;BME280;74102;49.084;13.694;2023-12-04T11:56:10;92927.75;;;-2.28;61.34
84020;BME280;74102;49.084;13.694;2023-12-04T11:58:43;92923.06;;;-2.34;61.27
84020;BME280;74102;49.084;13.694;2023-12-04T12:01:09;92930.47;;;-2.42;61.46
84020;BME280;74102;49.084;13.694;2023-12-04T12:03:34;92928.22;;;-2.46;60.89
84020;BME280;74102;49.084;13.694;2023-12-04T12:06:00;92933.88;;;-2.54;61.17
84020;BME280;74102;49.084;13.694;2023-12-04T12:08:28;92944.03;;;-2.65;61.94
84020;BME280;74102;49.084;13.694;2023-12-04T12:10:54;92932.78;;;-2.75;61.94
84020;BME280;74102;49.084;13.694;2023-12-04T12:13:20;92927.66;;;-2.88;62.66
84020;BME280;74102;49.084;13.694;2023-12-04T12:15:50;92925.81;;;-2.98;62.66
84020;BME280;74102;49.084;13.694;2023-12-04T12:18:16;92916.41;;;-3.10;62.61
84020;BME280;74102;49.084;13.694;2023-12-04T12:20:42;92919.31;;;-3.28;63.10
84020;BME280;74102;49.084;13.694;2023-12-04T12:23:07;92916.63;;;-3.39;63.55
84020;BME280;74102;49.084;13.694;2023-12-04T12:25:34;92917.03;;;-3.45;63.61
84020;BME280;74102;49.084;13.694;2023-12-04T12:28:06;92916.41;;;-3.48;63.79
84020;BME280;74102;49.084;13.694;2023-12-04T12:30:32;92916.50;;;-3.50;63.77
84020;BME280;74102;49.084;13.694;2023-12-04T12:32:57;92914.34;;;-3.43;64.43
84020;BME280;74102;49.084;13.694;2023-12-04T12:35:23;92900.38;;;-3.38;63.72
84020;BME280;74102;49.084;13.694;2023-12-04T12:37:50;92902.31;;;-3.29;63.34
84020;BME280;74102;49.084;13.694;2023-12-04T12:40:20;92903.56;;;-3.22;63.26
84020;BME280;74102;49.084;13.694;2023-12-04T12:42:46;92882.25;;;-3.09;62.85